createdAt,value
2019-05-22T00:03:47.082Z,100451.83
2019-05-22T00:08:52.597Z,100441.19
2019-05-22T00:13:59.348Z,100446.02
2019-05-22T00:19:06.010Z,100449.02
2019-05-22T00:24:12.277Z,100445.52
2019-05-22T00:29:17.414Z,100442.77
2019-05-22T00:34:23.881Z,100450.45
2019-05-22T00:39:30.797Z,100444.36
2019-05-22T00:44:35.659Z,100441.61
2019-05-22T00:49:40.447Z,100438.56
2019-05-22T00:54:53.644Z,100440.42
2019-05-22T01:00:07.678Z,100441.78
2019-05-22T01:05:13.431Z,100437.33
2019-05-22T01:10:18.909Z,100437.72
2019-05-22T01:15:25.144Z,100434.59
2019-05-22T01:20:30.328Z,100432.44
2019-05-22T01:25:37.189Z,100428.51
2019-05-22T01:30:51.381Z,100420.46
2019-05-22T01:36:05.067Z,100423.37
2019-05-22T01:41:16.343Z,100421.50
2019-05-22T01:46:22.563Z,100423.41
2019-05-22T01:51:27.953Z,100418.16
2019-05-22T01:56:34.862Z,100416.23
2019-05-22T02:01:40.124Z,100418.62
2019-05-22T02:06:44.823Z,100407.01
2019-05-22T02:11:54.556Z,100405.29
2019-05-22T02:17:00.131Z,100399.41
2019-05-22T02:22:06.942Z,100405.23
2019-05-22T02:27:13.929Z,100402.80
2019-05-22T02:32:20.379Z,100401.84
2019-05-22T02:37:25.325Z,100391.45
2019-05-22T02:42:33.187Z,100388.06
2019-05-22T02:47:39.029Z,100395.25
2019-05-22T02:52:44.159Z,100380.73
2019-05-22T02:57:49.428Z,100381.73
2019-05-22T03:02:55.917Z,100377.96
2019-05-22T03:08:01.658Z,100376.19
2019-05-22T03:13:08.740Z,100374.62
2019-05-22T03:18:13.770Z,100372.94
2019-05-22T03:23:36.742Z,100369.78
2019-05-22T03:28:42.312Z,100370.51
2019-05-22T03:33:47.531Z,100374.19
2019-05-22T03:38:53.217Z,100374.01
2019-05-22T03:43:58.680Z,100375.77
2019-05-22T03:49:05.175Z,100376.02
2019-05-22T03:54:11.490Z,100369.97
2019-05-22T03:59:16.509Z,100364.03
2019-05-22T04:04:34.548Z,100372.02
2019-05-22T04:09:40.410Z,100361.88
2019-05-22T04:14:46.075Z,100367.08
2019-05-22T04:19:52.012Z,100360.16
2019-05-22T04:24:57.515Z,100361.50
2019-05-22T04:30:03.371Z,100360.61
2019-05-22T04:35:11.888Z,100363.59
2019-05-22T04:40:46.654Z,100362.14
2019-05-22T04:45:53.996Z,100363.78
2019-05-22T04:51:04.316Z,100364.81
2019-05-22T04:56:08.965Z,100360.44
2019-05-22T05:01:13.619Z,100353.81
2019-05-22T05:06:19.558Z,100351.88
2019-05-22T05:11:24.698Z,100351.83
2019-05-22T05:16:29.487Z,100353.50
2019-05-22T05:21:34.873Z,100352.26
2019-05-22T05:26:40.463Z,100346.45
2019-05-22T05:31:45.515Z,100352.96
2019-05-22T05:36:50.740Z,100359.70
2019-05-22T05:41:55.794Z,100368.37
2019-05-22T05:47:00.513Z,100378.92
2019-05-22T05:52:07.741Z,100379.92
2019-05-22T05:57:40.413Z,100378.95
2019-05-22T06:02:56.138Z,100384.31
2019-05-22T06:07:51.953Z,100388.23
2019-05-22T06:12:57.681Z,100397.61
2019-05-22T06:18:21.264Z,100389.92
2019-05-22T06:24:05.813Z,100383.83
2019-05-22T06:29:12.511Z,100383.83
2019-05-22T06:34:17.225Z,100381.88
2019-05-22T06:39:23.390Z,100381.51
2019-05-22T06:44:33.625Z,100386.88
2019-05-22T06:49:49.510Z,100389.69
2019-05-22T06:54:55.219Z,100386.94
2019-05-22T07:00:13.465Z,100391.83
2019-05-22T07:05:08.808Z,100397.17
2019-05-22T07:10:14.855Z,100396.16
2019-05-22T07:15:25.736Z,100395.75
2019-05-22T07:20:33.751Z,100387.17
2019-05-22T07:25:40.435Z,100388.27
2019-05-22T07:30:45.797Z,100391.77
2019-05-22T07:36:08.416Z,100385.66
2019-05-22T07:40:57.609Z,100392.70
2019-05-22T07:46:02.655Z,100393.31
2019-05-22T07:51:08.683Z,100393.07
2019-05-22T07:56:14.330Z,100394.95
2019-05-22T08:01:18.970Z,100395.56
2019-05-22T08:06:25.029Z,100396.75
2019-05-22T08:11:30.083Z,100390.16
2019-05-22T08:16:35.544Z,100394.16
2019-05-22T08:21:41.002Z,100386.11
2019-05-22T08:26:54.596Z,100396.37
2019-05-22T08:31:54.463Z,100381.34
2019-05-22T08:37:00.004Z,100384.50
2019-05-22T08:42:05.543Z,100384.32
2019-05-22T08:47:10.991Z,100385.23
2019-05-22T08:52:23.626Z,100383.94
2019-05-22T08:57:23.920Z,100385.05
2019-05-22T09:02:29.125Z,100378.16
2019-05-22T09:07:34.019Z,100371.00
2019-05-22T09:12:39.156Z,100375.28
2019-05-22T09:17:43.996Z,100371.38
2019-05-22T09:22:48.842Z,100368.23
2019-05-22T09:27:54.082Z,100360.92
2019-05-22T09:32:59.221Z,100362.48
2019-05-22T09:38:04.138Z,100357.16
2019-05-22T09:43:09.004Z,100369.95
2019-05-22T09:48:14.114Z,100368.56
2019-05-22T09:53:19.762Z,100367.27
2019-05-22T09:58:24.703Z,100371.12
2019-05-22T10:03:30.153Z,100365.59
2019-05-22T10:08:35.281Z,100365.52
2019-05-22T10:13:40.551Z,100366.70
2019-05-22T10:18:45.495Z,100366.75
2019-05-22T10:23:50.641Z,100363.61
2019-05-22T10:28:57.381Z,100350.44
2019-05-22T10:34:02.222Z,100351.00
2019-05-22T10:39:07.922Z,100342.30
2019-05-22T10:44:12.888Z,100345.58
2019-05-22T10:49:17.861Z,100345.27
2019-05-22T10:54:22.501Z,100343.63
2019-05-22T10:59:27.439Z,100343.00
2019-05-22T11:04:32.437Z,100337.28
2019-05-22T11:09:37.844Z,100340.41
2019-05-22T11:14:43.749Z,100349.28
2019-05-22T11:19:48.860Z,100339.70
2019-05-22T11:24:54.331Z,100343.82
2019-05-22T11:29:59.394Z,100343.69
2019-05-22T11:35:04.771Z,100342.85
2019-05-22T11:40:10.332Z,100344.67
2019-05-22T11:45:16.624Z,100347.22
2019-05-22T11:50:21.576Z,100343.27
2019-05-22T11:55:42.625Z,100347.70
2019-05-22T12:00:33.319Z,100347.12
2019-05-22T12:05:38.871Z,100349.53
2019-05-22T12:10:44.552Z,100362.53
2019-05-22T12:15:49.836Z,100343.50
2019-05-22T12:20:54.851Z,100346.42
2019-05-22T12:25:59.603Z,100336.72
2019-05-22T12:31:05.223Z,100335.65
2019-05-22T12:36:12.523Z,100328.05
2019-05-22T12:41:19.292Z,100322.24
2019-05-22T12:46:24.463Z,100311.25
2019-05-22T12:51:29.433Z,100307.05
2019-05-22T12:56:34.314Z,100304.34
2019-05-22T13:01:39.902Z,100310.16
2019-05-22T13:06:44.982Z,100293.63
2019-05-22T13:11:50.185Z,100296.80
2019-05-22T13:16:55.173Z,100295.86
2019-05-22T13:22:00.705Z,100299.41
2019-05-22T13:27:08.136Z,100301.30
2019-05-22T13:32:15.051Z,100295.11
2019-05-22T13:37:20.202Z,100286.64
2019-05-22T13:42:25.587Z,100295.77
2019-05-22T13:47:30.876Z,100287.02
2019-05-22T13:52:38.353Z,100284.07
2019-05-22T13:57:43.061Z,100273.67
2019-05-22T14:02:48.457Z,100280.43
2019-05-22T14:07:53.431Z,100283.45
2019-05-22T14:12:59.030Z,100278.41
2019-05-22T14:18:04.277Z,100279.95
2019-05-22T14:23:09.151Z,100267.25
2019-05-22T14:28:14.302Z,100259.95
2019-05-22T14:33:19.403Z,100266.23
2019-05-22T14:38:25.081Z,100262.77
2019-05-22T14:43:30.391Z,100264.11
2019-05-22T14:48:35.340Z,100257.58
2019-05-22T14:53:41.831Z,100265.03
2019-05-22T14:58:48.591Z,100258.06
2019-05-22T15:03:53.661Z,100261.59
2019-05-22T15:08:59.918Z,100247.33
2019-05-22T15:14:05.071Z,100250.75
2019-05-22T15:19:11.656Z,100249.12
2019-05-22T15:24:16.640Z,100257.15
2019-05-22T15:29:21.612Z,100253.13
2019-05-22T15:34:27.482Z,100249.77
2019-05-22T15:39:32.850Z,100237.16
2019-05-22T15:44:37.920Z,100243.14
2019-05-22T15:49:45.251Z,100247.97
2019-05-22T15:54:50.770Z,100237.84
2019-05-22T15:59:55.910Z,100233.89
2019-05-22T16:05:02.262Z,100240.78
2019-05-22T16:10:08.096Z,100237.63
2019-05-22T16:15:13.862Z,100233.17
2019-05-22T16:20:22.231Z,100228.86
2019-05-22T16:25:28.303Z,100224.35
2019-05-22T16:30:33.735Z,100227.86
2019-05-22T16:35:39.762Z,100221.11
2019-05-22T16:40:45.716Z,100218.58
2019-05-22T16:45:50.890Z,100216.35
2019-05-22T16:50:55.631Z,100220.77
2019-05-22T16:56:00.690Z,100215.03
2019-05-22T17:01:07.219Z,100221.25
2019-05-22T17:06:12.761Z,100217.43
2019-05-22T17:11:17.842Z,100216.77
2019-05-22T17:16:23.552Z,100215.41
2019-05-22T17:21:30.095Z,100209.20
2019-05-22T17:26:36.117Z,100211.25
2019-05-22T17:31:41.382Z,100214.11
2019-05-22T17:36:46.339Z,100208.41
2019-05-22T17:41:55.942Z,100199.89
2019-05-22T17:47:00.650Z,100206.42
2019-05-22T17:52:06.019Z,100210.42
2019-05-22T17:57:11.947Z,100206.50
2019-05-22T18:02:18.291Z,100198.26
2019-05-22T18:07:24.071Z,100193.80
2019-05-22T18:12:29.411Z,100196.80
2019-05-22T18:17:34.423Z,100197.06
2019-05-22T18:22:40.246Z,100196.03
2019-05-22T18:27:45.575Z,100199.21
2019-05-22T18:32:50.453Z,100194.01
2019-05-22T18:37:55.093Z,100189.81
2019-05-22T18:43:00.110Z,100189.69
2019-05-22T18:48:06.246Z,100189.41
2019-05-22T18:53:11.066Z,100194.13
2019-05-22T18:58:15.837Z,100198.78
2019-05-22T19:03:20.905Z,100185.77
2019-05-22T19:08:26.043Z,100187.90
2019-05-22T19:13:30.926Z,100185.19
2019-05-22T19:18:36.467Z,100192.72
2019-05-22T19:23:42.168Z,100188.05
2019-05-22T19:28:46.948Z,100197.36
2019-05-22T19:33:51.986Z,100193.77
2019-05-22T19:38:56.895Z,100202.61
2019-05-22T19:44:02.004Z,100207.92
2019-05-22T19:49:08.206Z,100203.30
2019-05-22T19:54:13.279Z,100187.43
2019-05-22T19:59:19.280Z,100197.74
2019-05-22T20:04:24.067Z,100198.94
2019-05-22T20:09:29.185Z,100199.84
2019-05-22T20:14:34.674Z,100199.72
2019-05-22T20:19:40.797Z,100199.72
2019-05-22T20:24:45.788Z,100207.70
2019-05-22T20:29:50.690Z,100204.42
2019-05-22T20:34:55.473Z,100201.12
2019-05-22T20:40:01.227Z,100206.62
2019-05-22T20:45:08.466Z,100199.75
2019-05-22T20:50:14.065Z,100184.05
2019-05-22T20:55:19.686Z,100185.13
2019-05-22T21:00:26.503Z,100172.77
2019-05-22T21:05:32.025Z,100179.02
2019-05-22T21:10:36.905Z,100173.80
2019-05-22T21:15:42.395Z,100178.11
2019-05-22T21:20:54.743Z,100173.44
2019-05-22T21:25:55.817Z,100176.47
2019-05-22T21:31:00.955Z,100169.12
2019-05-22T21:36:06.524Z,100168.61
2019-05-22T21:41:11.598Z,100166.71
2019-05-22T21:46:16.523Z,100171.94
2019-05-22T21:51:21.965Z,100172.98
2019-05-22T21:56:26.645Z,100167.16
2019-05-22T22:01:36.245Z,100166.84
2019-05-22T22:06:42.257Z,100166.33
2019-05-22T22:11:47.617Z,100154.63
2019-05-22T22:16:52.357Z,100160.65
2019-05-22T22:21:57.287Z,100151.86
2019-05-22T22:27:04.249Z,100158.13
2019-05-22T22:32:12.227Z,100158.62
2019-05-22T22:37:17.769Z,100140.55
2019-05-22T22:42:25.154Z,100126.89
2019-05-22T22:47:37.217Z,100145.05
2019-05-22T22:52:45.390Z,100153.63
2019-05-22T22:57:51.685Z,100113.84
2019-05-22T23:02:58.986Z,100114.53
2019-05-22T23:08:04.877Z,100129.06
2019-05-22T23:13:09.666Z,100129.89
2019-05-22T23:18:23.034Z,100130.91
2019-05-22T23:23:26.695Z,100120.20
2019-05-22T23:28:34.972Z,100112.98
2019-05-22T23:33:39.365Z,100111.34
2019-05-22T23:38:45.509Z,100103.62
2019-05-22T23:43:50.648Z,100101.53
2019-05-22T23:48:55.647Z,100099.53
2019-05-22T23:54:01.937Z,100100.85
2019-05-22T23:59:08.358Z,100096.92
